sim
Sign-in with your pilot id or email,
or register
Callsign
Passwort

Schedule Details

Flight Number: DLH2173 (2)
Departure: Leipzig Halle Airport (EDDP) at 05:10
Arrival: Munich Airport (EDDM) at 06:10
Route: Lufthansa Passenger Schedule. Enter filed route here before submitting Pirep.

Weather Information
Getting current METAR information for EDDP 221250Z 19008KT 160V230 CAVOK 27/11 Q1010 NOSIG
Getting current METAR information for EDDM 221250Z 05004KT 010V140 9999 FEW038 24/14 Q1012 NOSIG

Schedule Frequency

Route Map